Nashville, TN (37244)

2:21 PM CDT on October 31, 2014 (GMT -0500)
Inglewood | Change Station
CLOSE
Current Station
Personal Weather Station
Location: Nashville, TN
Elevation: 505 ft
Nearby Weather Stations
Active Advisory: Freeze Warning

Elev 505 ft 36.21 °N, 86.71 °W | Updated 1 second ago

Overcast
Overcast
47.1 °F
Feels Like 45 °F
N
4.5
Wind Variable Wind from NW
Gusts 23.5 mph

Today
High -- | Low -- °F
--% Chance of Precip.
Yesterday
High -- | Low -- °F
Precip. -- in
7:08 AM 5:52 PM
First Quarter, 58% visible
Pressure 30.00 in
Visibility 10.0 miles
Clouds Mostly Cloudy 2600 ft
Mostly Cloudy 3600 ft
Overcast 4300 ft
Windchill 45 °F
Dew Point 41 °F
Humidity 80%
Rainfall 0.00 in
Snow Depth Not available.
UV 1 out of 12
Pollen .30 out of 12
Air Quality Not available.
Flu Activity Not available.
SPECI KBNA 311905Z 32010KT 280V350 10SM BKN026 BKN036 OVC043 11/06 A3000 RMK AO2

More Conditions Fewer Conditions

Pressure 30.00 in
Visibility 10.0 miles
Clouds Mostly Cloudy 2600 ft
Mostly Cloudy 3600 ft
Overcast 4300 ft
Windchill 45 °F
Dew Point 41 °F
Humidity 80%
Rainfall 0.00 in
Snow Depth Not available.
UV 1 out of 12
Pollen .30 out of 12
Air Quality Not available.
Flu Activity Not available.
SPECI KBNA 311905Z 32010KT 280V350 10SM BKN026 BKN036 OVC043 11/06 A3000 RMK AO2

More Conditions Fewer Conditions

10-Day Weather Forecast

Almanac

Astronomy

Oct. 31, 2014 Rise Set
Actual Time
Civil Twilight
Nautical Twilight
Astronomical Twilight
Moon
Length of Visible Light
Length of Day
Tomorrow will be .
, % of the Moon is Illuminated

Today's Extremes

State Highs State Lows

Community

WunderPhotos

Upload Photos

1,766,699 photos uploaded!

WunderBlogs® & News

Nearby

Air Quality

  Air Quality AQ Index Pollutant
Not available.

Snow Depth

Station Depth Elevation

Earthquake Activity

City Distance Mag. Time & Date
Minimum magnitude displayed is 2.5.

Coastal Water Temperatures

Place Temperature

Nearby Weather Stations